createdAt,value
2019-04-04T00:01:48.719Z,16.37
2019-04-04T00:04:26.825Z,17.33
2019-04-04T00:07:05.001Z,17.63
2019-04-04T00:09:43.326Z,16.17
2019-04-04T00:12:21.328Z,17.20
2019-04-04T00:14:59.206Z,17.97
2019-04-04T00:17:37.212Z,16.77
2019-04-04T00:20:15.392Z,16.57
2019-04-04T00:22:54.655Z,16.07
2019-04-04T00:25:40.300Z,17.13
2019-04-04T00:28:19.195Z,15.93
2019-04-04T00:30:57.397Z,16.43
2019-04-04T00:33:35.127Z,17.03
2019-04-04T00:36:13.082Z,15.77
2019-04-04T00:38:51.030Z,15.73
2019-04-04T00:41:30.791Z,15.90
2019-04-04T00:44:08.922Z,16.17
2019-04-04T00:46:47.264Z,17.50
2019-04-04T00:49:26.129Z,15.93
2019-04-04T00:52:10.043Z,16.27
2019-04-04T00:54:47.766Z,15.87
2019-04-04T00:57:26.209Z,16.73
2019-04-04T01:00:11.547Z,17.67
2019-04-04T01:02:49.235Z,17.40
2019-04-04T01:05:27.311Z,16.20
2019-04-04T01:08:09.253Z,16.20
2019-04-04T01:10:49.504Z,15.10
2019-04-04T01:13:29.216Z,17.73
2019-04-04T01:16:08.939Z,16.63
2019-04-04T01:18:47.215Z,16.80
2019-04-04T01:21:25.095Z,16.47
2019-04-04T01:24:04.686Z,16.60
2019-04-04T01:26:42.546Z,17.43
2019-04-04T01:29:20.806Z,17.90
2019-04-04T01:31:58.797Z,15.70
2019-04-04T01:34:46.469Z,18.07
2019-04-04T01:37:25.214Z,16.30
2019-04-04T01:40:05.855Z,17.40
2019-04-04T01:42:43.533Z,17.27
2019-04-04T01:45:24.173Z,17.73
2019-04-04T01:48:02.376Z,16.97
2019-04-04T01:50:43.694Z,17.33
2019-04-04T01:53:21.894Z,16.13
2019-04-04T01:56:00.070Z,17.83
2019-04-04T01:58:41.792Z,17.07
2019-04-04T02:01:19.437Z,18.50
2019-04-04T02:03:58.294Z,18.10
2019-04-04T02:06:36.435Z,19.37
2019-04-04T02:09:19.040Z,16.93
2019-04-04T02:11:58.825Z,17.33
2019-04-04T02:14:36.834Z,15.80
2019-04-04T02:17:20.079Z,17.27
2019-04-04T02:20:00.910Z,17.17
2019-04-04T02:22:39.318Z,15.87
2019-04-04T02:25:17.050Z,16.83
2019-04-04T02:27:54.980Z,17.60
2019-04-04T02:30:41.649Z,16.13
2019-04-04T02:33:22.219Z,18.67
2019-04-04T02:36:00.472Z,18.77
2019-04-04T02:38:44.114Z,17.10
2019-04-04T02:41:32.459Z,18.10
2019-04-04T02:44:10.299Z,18.27
2019-04-04T02:47:01.664Z,16.93
2019-04-04T02:49:39.105Z,17.13
2019-04-04T02:52:17.165Z,17.23
2019-04-04T02:54:58.161Z,16.30
2019-04-04T02:57:34.617Z,17.50
2019-04-04T03:00:40.048Z,17.23
2019-04-04T03:03:22.586Z,16.87
2019-04-04T03:06:00.359Z,18.33
2019-04-04T03:08:38.414Z,18.57
2019-04-04T03:11:32.855Z,19.73
2019-04-04T03:14:11.118Z,17.10
2019-04-04T03:16:56.297Z,17.97
2019-04-04T03:19:35.728Z,17.77
2019-04-04T03:22:16.138Z,19.10
2019-04-04T03:24:56.915Z,18.23
2019-04-04T03:27:36.152Z,16.50
2019-04-04T03:30:19.758Z,17.40
2019-04-04T03:33:04.407Z,18.07
2019-04-04T03:35:42.560Z,18.10
2019-04-04T03:38:20.425Z,17.27
2019-04-04T03:41:02.149Z,16.43
2019-04-04T03:43:51.995Z,16.80
2019-04-04T03:46:38.804Z,18.03
2019-04-04T03:49:15.715Z,16.23
2019-04-04T03:51:53.324Z,17.40
2019-04-04T03:54:31.647Z,18.00
2019-04-04T03:57:12.537Z,16.07
2019-04-04T03:59:56.760Z,16.57
2019-04-04T04:02:34.923Z,17.17
2019-04-04T04:05:26.214Z,16.50
2019-04-04T04:08:04.377Z,16.17
2019-04-04T04:10:42.304Z,17.30
2019-04-04T04:13:21.219Z,17.83
2019-04-04T04:16:02.477Z,16.83
2019-04-04T04:18:40.866Z,15.47
2019-04-04T04:21:22.046Z,14.97
2019-04-04T04:24:03.877Z,15.70
2019-04-04T04:26:41.900Z,16.23
2019-04-04T04:29:29.479Z,14.70
2019-04-04T04:32:08.097Z,16.03
2019-04-04T04:34:46.239Z,16.40
2019-04-04T04:37:25.908Z,15.17
2019-04-04T04:40:02.919Z,15.27
2019-04-04T04:42:40.859Z,14.43
2019-04-04T04:45:19.591Z,16.30
2019-04-04T04:47:59.111Z,14.50
2019-04-04T04:51:48.385Z,15.63
2019-04-04T04:54:27.151Z,13.13
2019-04-04T04:57:06.077Z,13.67
2019-04-04T04:59:45.643Z,12.70
2019-04-04T05:02:23.641Z,12.87
2019-04-04T05:05:01.239Z,13.43
2019-04-04T05:07:42.014Z,13.57
2019-04-04T05:10:20.009Z,12.50
2019-04-04T05:12:57.458Z,13.70
2019-04-04T05:15:36.510Z,13.80
2019-04-04T05:18:16.309Z,11.57
2019-04-04T05:20:53.792Z,12.00
2019-04-04T05:23:31.442Z,13.07
2019-04-04T05:26:10.575Z,12.43
2019-04-04T05:28:48.474Z,12.27
2019-04-04T05:31:26.603Z,12.50
2019-04-04T05:34:04.135Z,12.50
2019-04-04T05:36:41.665Z,12.17
2019-04-04T05:39:19.599Z,11.53
2019-04-04T05:41:58.082Z,11.70
2019-04-04T05:44:36.413Z,12.73
2019-04-04T05:47:14.115Z,10.77
2019-04-04T05:49:51.661Z,10.83
2019-04-04T05:52:30.498Z,11.40
2019-04-04T05:55:10.853Z,11.83
2019-04-04T05:57:49.002Z,11.13
2019-04-04T06:00:28.406Z,11.63
2019-04-04T06:03:05.955Z,10.97
2019-04-04T06:05:43.361Z,11.37
2019-04-04T06:08:20.778Z,11.07
2019-04-04T06:10:58.505Z,11.43
2019-04-04T06:13:36.554Z,11.87
2019-04-04T06:16:14.025Z,10.80
2019-04-04T06:18:51.554Z,11.27
2019-04-04T06:21:29.338Z,11.03
2019-04-04T06:24:06.623Z,11.47
2019-04-04T06:26:45.172Z,11.57
2019-04-04T06:29:22.650Z,11.00
2019-04-04T06:32:00.946Z,11.17
2019-04-04T06:34:38.763Z,11.83
2019-04-04T06:37:18.074Z,11.53
2019-04-04T06:39:58.458Z,11.10
2019-04-04T06:42:37.602Z,12.23
2019-04-04T06:45:16.546Z,11.47
2019-04-04T06:47:57.109Z,11.47
2019-04-04T06:50:33.912Z,10.67
2019-04-04T06:53:11.724Z,11.43
2019-04-04T06:56:15.614Z,11.73
2019-04-04T06:58:55.159Z,10.63
2019-04-04T07:01:38.309Z,11.80
2019-04-04T07:04:17.414Z,10.70
2019-04-04T07:06:55.154Z,11.20
2019-04-04T07:09:33.145Z,11.00
2019-04-04T07:12:20.882Z,11.37
2019-04-04T07:14:50.178Z,10.23
2019-04-04T07:17:27.891Z,11.93
2019-04-04T07:20:08.638Z,11.13
2019-04-04T07:22:46.442Z,11.87
2019-04-04T07:25:24.023Z,11.13
2019-04-04T07:28:01.658Z,10.83
2019-04-04T07:30:39.433Z,11.33
2019-04-04T07:33:17.348Z,11.30
2019-04-04T07:35:56.613Z,11.53
2019-04-04T07:38:35.088Z,13.20
2019-04-04T07:41:14.800Z,11.10
2019-04-04T07:43:52.343Z,11.57
2019-04-04T07:46:29.607Z,10.75
2019-04-04T07:49:07.420Z,11.30
2019-04-04T07:51:45.722Z,11.40
2019-04-04T07:54:23.469Z,10.68
2019-04-04T07:57:01.666Z,9.90
2019-04-04T07:59:39.560Z,10.50
2019-04-04T08:02:18.390Z,10.75
2019-04-04T08:04:56.426Z,9.60
2019-04-04T08:07:36.605Z,9.28
2019-04-04T08:10:20.757Z,9.23
2019-04-04T08:12:56.104Z,9.83
2019-04-04T08:15:35.924Z,9.50
2019-04-04T08:18:14.136Z,9.58
2019-04-04T08:20:52.036Z,10.13
2019-04-04T08:23:31.954Z,9.80
2019-04-04T08:26:10.667Z,10.82
2019-04-04T08:28:48.942Z,10.78
2019-04-04T08:31:27.347Z,10.82
2019-04-04T08:34:05.747Z,9.50
2019-04-04T08:36:43.878Z,9.15
2019-04-04T08:39:22.093Z,9.95
2019-04-04T08:42:02.320Z,10.00
2019-04-04T08:44:40.365Z,9.93
2019-04-04T08:47:20.571Z,10.15
2019-04-04T08:50:01.391Z,10.20
2019-04-04T08:52:39.099Z,10.32
2019-04-04T08:55:18.734Z,10.78
2019-04-04T08:57:56.702Z,9.95
2019-04-04T09:00:34.606Z,11.73
2019-04-04T09:03:12.522Z,10.68
2019-04-04T09:05:50.467Z,9.28
2019-04-04T09:08:28.745Z,11.03
2019-04-04T09:11:06.725Z,10.00
2019-04-04T09:13:44.938Z,9.88
2019-04-04T09:16:22.706Z,9.93
2019-04-04T09:19:00.875Z,10.20
2019-04-04T09:21:38.858Z,10.70
2019-04-04T09:24:16.896Z,10.85
2019-04-04T09:26:54.635Z,9.63
2019-04-04T09:29:32.723Z,8.88
2019-04-04T09:32:10.971Z,9.98
2019-04-04T09:34:48.828Z,8.45
2019-04-04T09:37:27.903Z,8.78
2019-04-04T09:40:06.812Z,9.55
2019-04-04T09:42:44.922Z,9.23
2019-04-04T09:45:23.951Z,8.55
2019-04-04T09:48:03.963Z,9.35
2019-04-04T09:50:41.316Z,8.45
2019-04-04T09:53:18.455Z,8.70
2019-04-04T09:55:55.781Z,8.93
2019-04-04T09:58:35.267Z,8.30
2019-04-04T10:01:12.766Z,9.00
2019-04-04T10:03:51.273Z,9.23
2019-04-04T10:06:29.440Z,8.33
2019-04-04T10:09:15.505Z,8.80
2019-04-04T10:11:46.074Z,8.25
2019-04-04T10:14:23.815Z,9.08
2019-04-04T10:17:00.890Z,8.40
2019-04-04T10:19:39.180Z,7.75
2019-04-04T10:22:18.163Z,7.33
2019-04-04T10:24:55.870Z,7.90
2019-04-04T10:27:33.195Z,7.90
2019-04-04T10:30:11.496Z,8.93
2019-04-04T10:32:49.361Z,8.00
2019-04-04T10:35:26.757Z,8.25
2019-04-04T10:38:04.422Z,7.92
2019-04-04T10:40:42.215Z,8.10
2019-04-04T10:43:20.376Z,7.40
2019-04-04T10:45:58.734Z,7.30
2019-04-04T10:48:39.973Z,8.93
2019-04-04T10:51:17.956Z,7.80
2019-04-04T10:53:55.742Z,7.75
2019-04-04T10:56:33.987Z,7.72
2019-04-04T10:59:11.910Z,7.28
2019-04-04T11:01:50.085Z,7.85
2019-04-04T11:04:28.311Z,9.48
2019-04-04T11:07:10.550Z,7.85
2019-04-04T11:09:48.062Z,8.15
2019-04-04T11:12:26.270Z,8.18
2019-04-04T11:15:05.751Z,6.97
2019-04-04T11:17:43.739Z,7.15
2019-04-04T11:20:21.819Z,6.62
2019-04-04T11:22:59.782Z,6.85
2019-04-04T11:25:37.642Z,7.85
2019-04-04T11:28:15.043Z,7.30
2019-04-04T11:30:57.346Z,7.28
2019-04-04T11:33:35.495Z,7.42
2019-04-04T11:36:16.706Z,7.22
2019-04-04T11:39:08.152Z,6.62
2019-04-04T11:41:50.470Z,7.60
2019-04-04T11:44:41.824Z,7.00
2019-04-04T11:47:30.890Z,7.17
2019-04-04T11:50:18.678Z,6.75
2019-04-04T11:53:06.692Z,7.08
2019-04-04T11:56:05.587Z,6.78
2019-04-04T11:58:54.808Z,7.35
2019-04-04T12:01:49.195Z,7.03
2019-04-04T12:04:27.600Z,6.87
2019-04-04T12:07:14.680Z,6.72
2019-04-04T12:10:08.555Z,6.00
2019-04-04T12:12:58.422Z,7.50
2019-04-04T12:15:43.787Z,6.87
2019-04-04T12:18:28.830Z,6.97
2019-04-04T12:21:10.500Z,6.62
2019-04-04T12:23:58.599Z,6.72
2019-04-04T12:26:51.686Z,6.72
2019-04-04T12:29:34.826Z,6.30
2019-04-04T12:32:23.806Z,6.97
2019-04-04T12:35:11.341Z,7.08
2019-04-04T12:37:55.224Z,6.10
2019-04-04T12:40:58.288Z,6.30
2019-04-04T12:43:43.365Z,6.35
2019-04-04T12:46:34.728Z,6.33
2019-04-04T12:49:15.932Z,6.65
2019-04-04T12:52:08.104Z,7.15
2019-04-04T12:54:58.279Z,6.22
2019-04-04T13:00:52.048Z,6.45
2019-04-04T13:03:34.815Z,5.87
2019-04-04T13:06:24.422Z,6.30
2019-04-04T13:09:09.444Z,6.33
2019-04-04T13:11:52.426Z,6.45
2019-04-04T13:14:56.370Z,6.60
2019-04-04T13:17:47.958Z,6.80
2019-04-04T13:20:40.959Z,6.33
2019-04-04T13:23:26.528Z,7.10
2019-04-04T13:26:08.681Z,6.10
2019-04-04T13:28:54.395Z,6.72
2019-04-04T13:31:41.585Z,7.15
2019-04-04T13:34:37.335Z,6.78
2019-04-04T13:37:32.906Z,7.12
2019-04-04T13:40:17.999Z,6.15
2019-04-04T13:43:09.893Z,6.45
2019-04-04T13:46:10.986Z,6.60
2019-04-04T13:49:14.930Z,7.12
2019-04-04T13:52:11.740Z,6.20
2019-04-04T13:55:04.438Z,6.58
2019-04-04T13:58:04.309Z,6.67
2019-04-04T14:00:51.782Z,6.50
2019-04-04T14:03:51.808Z,6.62
2019-04-04T14:06:46.722Z,6.97
2019-04-04T14:09:39.908Z,6.15
2019-04-04T14:12:37.513Z,6.67
2019-04-04T14:15:32.515Z,6.70
2019-04-04T14:18:38.964Z,6.60
2019-04-04T14:21:08.725Z,6.95
2019-04-04T14:23:53.584Z,6.80
2019-04-04T14:26:42.323Z,6.65
2019-04-04T14:29:40.526Z,6.50
2019-04-04T14:32:27.952Z,6.90
2019-04-04T14:35:18.726Z,6.62
2019-04-04T14:38:03.947Z,6.40
2019-04-04T14:40:49.153Z,6.78
2019-04-04T14:43:46.257Z,6.45
2019-04-04T14:46:33.905Z,7.17
2019-04-04T14:49:18.761Z,7.33
2019-04-04T14:55:10.040Z,6.90
2019-04-04T14:57:55.111Z,7.15
2019-04-04T15:00:39.973Z,6.53
2019-04-04T15:03:30.599Z,6.70
2019-04-04T15:06:36.816Z,6.20
2019-04-04T15:09:12.387Z,7.12
2019-04-04T15:12:07.450Z,8.78
2019-04-04T15:14:49.702Z,7.78
2019-04-04T15:17:48.850Z,7.10
2019-04-04T15:20:57.152Z,6.45
2019-04-04T15:24:09.482Z,6.60
2019-04-04T15:26:57.026Z,6.90
2019-04-04T15:29:38.064Z,6.80
2019-04-04T15:32:25.441Z,6.78
2019-04-04T15:35:14.382Z,6.90
2019-04-04T15:38:20.283Z,6.67
2019-04-04T15:41:02.189Z,6.95
2019-04-04T15:43:43.293Z,6.83
2019-04-04T15:46:33.036Z,6.70
2019-04-04T15:49:40.112Z,6.80
2019-04-04T15:52:28.476Z,7.40
2019-04-04T15:55:26.525Z,7.25
2019-04-04T15:58:12.690Z,6.85
2019-04-04T16:01:13.411Z,7.40
2019-04-04T16:03:52.992Z,7.23
2019-04-04T16:06:32.649Z,7.63
2019-04-04T16:09:13.419Z,7.92
2019-04-04T16:11:56.361Z,7.92
2019-04-04T16:14:38.215Z,7.63
2019-04-04T16:17:33.465Z,7.35
2019-04-04T16:20:17.463Z,7.77
2019-04-04T16:22:57.595Z,7.25
2019-04-04T16:25:37.549Z,6.90
2019-04-04T16:28:15.695Z,7.12
2019-04-04T16:31:09.098Z,7.07
2019-04-04T16:34:04.997Z,7.33
2019-04-04T16:36:45.792Z,7.45
2019-04-04T16:40:09.780Z,7.70
2019-04-04T16:42:56.595Z,7.80
2019-04-04T16:45:51.762Z,7.47
2019-04-04T16:49:07.854Z,7.40
2019-04-04T16:51:56.356Z,7.63
2019-04-04T16:54:35.877Z,8.07
2019-04-04T16:57:43.138Z,7.50
2019-04-04T17:00:29.733Z,7.27
2019-04-04T17:03:11.444Z,7.63
2019-04-04T17:05:51.760Z,8.13
2019-04-04T17:08:37.103Z,8.13
2019-04-04T17:11:14.696Z,8.27
2019-04-04T17:14:01.869Z,8.50
2019-04-04T17:16:41.967Z,8.53
2019-04-04T17:19:21.713Z,8.80
2019-04-04T17:22:44.484Z,9.53
2019-04-04T17:25:31.879Z,9.97
2019-04-04T17:28:12.752Z,9.67
2019-04-04T17:30:54.063Z,9.47
2019-04-04T17:33:32.228Z,9.10
2019-04-04T17:36:10.688Z,8.83
2019-04-04T17:38:50.325Z,9.53
2019-04-04T17:41:33.875Z,10.23
2019-04-04T17:44:34.323Z,12.87
2019-04-04T17:47:20.220Z,12.53
2019-04-04T17:50:01.750Z,11.77
2019-04-04T17:52:40.133Z,11.10
2019-04-04T17:55:17.717Z,9.97
2019-04-04T17:58:09.306Z,9.57
2019-04-04T18:01:10.222Z,10.00
2019-04-04T18:04:28.994Z,10.20
2019-04-04T18:07:28.741Z,9.77
2019-04-04T18:10:23.722Z,9.70
2019-04-04T18:13:04.335Z,10.07
2019-04-04T18:15:52.772Z,10.63
2019-04-04T18:18:44.833Z,9.83
2019-04-04T18:21:25.676Z,9.50
2019-04-04T18:24:05.190Z,9.13
2019-04-04T18:26:48.925Z,9.17
2019-04-04T18:29:26.641Z,9.93
2019-04-04T18:32:13.057Z,9.33
2019-04-04T18:34:55.757Z,9.70
2019-04-04T18:37:37.090Z,11.30
2019-04-04T18:40:25.050Z,12.87
2019-04-04T18:46:11.689Z,15.17
2019-04-04T18:48:50.941Z,12.97
2019-04-04T18:51:47.983Z,11.83
2019-04-04T18:54:50.051Z,11.50
2019-04-04T18:58:01.061Z,10.53
2019-04-04T19:00:53.410Z,10.50
2019-04-04T19:03:40.971Z,9.17
2019-04-04T19:06:34.322Z,10.13
2019-04-04T19:09:27.778Z,10.07
2019-04-04T19:12:16.017Z,9.53
2019-04-04T19:14:59.494Z,10.40
2019-04-04T19:17:39.125Z,9.53
2019-04-04T19:20:38.532Z,9.90
2019-04-04T19:23:28.698Z,9.60
2019-04-04T19:26:18.240Z,9.87
2019-04-04T19:28:57.168Z,9.67
2019-04-04T19:31:38.419Z,9.10
2019-04-04T19:34:21.108Z,10.10
2019-04-04T19:37:06.623Z,9.47
2019-04-04T19:39:48.389Z,10.07
2019-04-04T19:42:25.871Z,9.80
2019-04-04T19:45:10.606Z,9.83
2019-04-04T19:47:58.378Z,8.90
2019-04-04T19:50:50.223Z,10.07
2019-04-04T19:53:34.790Z,10.80
2019-04-04T19:56:28.693Z,9.73
2019-04-04T19:59:18.949Z,9.67
2019-04-04T20:02:12.013Z,9.60
2019-04-04T20:05:18.194Z,9.77
2019-04-04T20:07:56.371Z,10.00
2019-04-04T20:10:48.671Z,9.83
2019-04-04T20:13:31.462Z,9.83
2019-04-04T20:16:12.540Z,9.43
2019-04-04T20:19:00.286Z,9.40
2019-04-04T20:21:56.232Z,8.33
2019-04-04T20:25:01.112Z,9.00
2019-04-04T20:27:53.910Z,9.57
2019-04-04T20:30:40.359Z,9.53
2019-04-04T20:33:27.238Z,10.50
2019-04-04T20:36:18.171Z,11.03
2019-04-04T20:39:12.870Z,10.13
2019-04-04T20:41:55.458Z,10.67
2019-04-04T20:44:43.929Z,10.90
2019-04-04T20:47:36.762Z,11.77
2019-04-04T20:50:13.770Z,11.23
2019-04-04T20:53:01.296Z,10.90
2019-04-04T20:55:54.786Z,11.90
2019-04-04T20:58:41.449Z,11.63
2019-04-04T21:01:30.650Z,10.87
2019-04-04T21:04:32.884Z,11.60
2019-04-04T21:07:14.108Z,10.40
2019-04-04T21:10:01.201Z,11.00
2019-04-04T21:12:52.396Z,11.03
2019-04-04T21:15:32.558Z,11.53
2019-04-04T21:18:17.709Z,11.33
2019-04-04T21:21:01.907Z,11.33
2019-04-04T21:23:49.781Z,12.60
2019-04-04T21:29:50.605Z,12.90
2019-04-04T21:32:53.163Z,12.00
2019-04-04T21:35:59.835Z,12.53
2019-04-04T21:38:50.366Z,12.37
2019-04-04T21:41:30.039Z,13.10
2019-04-04T21:44:38.199Z,13.67
2019-04-04T21:47:31.530Z,14.47
2019-04-04T21:50:20.628Z,15.93
2019-04-04T21:53:21.721Z,15.17
2019-04-04T21:56:13.891Z,16.20
2019-04-04T21:59:20.331Z,16.07
2019-04-04T22:02:14.268Z,16.17
2019-04-04T22:05:00.115Z,15.37
2019-04-04T22:07:49.823Z,16.10
2019-04-04T22:10:30.372Z,15.63
2019-04-04T22:13:23.433Z,15.07
2019-04-04T22:16:07.357Z,15.50
2019-04-04T22:18:56.035Z,15.13
2019-04-04T22:21:40.549Z,15.30
2019-04-04T22:24:28.854Z,14.73
2019-04-04T22:27:09.337Z,14.30
2019-04-04T22:29:52.475Z,14.83
2019-04-04T22:32:43.485Z,16.67
2019-04-04T22:35:33.575Z,14.73
2019-04-04T22:38:22.102Z,15.17
2019-04-04T22:41:05.785Z,14.90
2019-04-04T22:43:44.832Z,15.13
2019-04-04T22:46:41.725Z,14.60
2019-04-04T22:49:39.319Z,15.70
2019-04-04T22:52:22.484Z,17.30
2019-04-04T22:55:26.423Z,19.70
2019-04-04T22:58:27.591Z,22.20
2019-04-04T23:01:08.433Z,22.30
2019-04-04T23:04:10.278Z,17.90
2019-04-04T23:07:24.822Z,18.47
2019-04-04T23:15:44.737Z,14.47
2019-04-04T23:17:57.246Z,16.03
2019-04-04T23:24:07.258Z,14.00
2019-04-04T23:26:58.981Z,14.63
2019-04-04T23:30:28.583Z,13.80
2019-04-04T23:33:48.038Z,14.57
2019-04-04T23:36:35.053Z,16.07
2019-04-04T23:39:23.870Z,14.97
2019-04-04T23:45:46.253Z,14.57
2019-04-04T23:48:32.188Z,16.53
2019-04-04T23:51:22.788Z,16.20
2019-04-04T23:54:10.793Z,15.40
2019-04-04T23:57:13.415Z,15.10
2019-04-04T23:59:59.627Z,16.70
